Newport, MI (48166)

10:15 PM EST on February 12, 2016 (GMT -0500)
Hebeeb Homestead | | Change Station
CLOSE
Current Station
Personal Weather Station
Location: Berlin Charter Township, MI
Elevation: 581 ft
Nearby Weather Stations

Elev 581 ft 42.00 °N, 83.28 °W | Updated 13 minutes ago

Overcast
Overcast
13.5 °F
Feels Like 3 °F
N
6.8
Wind Variable Wind from NE

Today
High -- | Low -- °F
--% Chance of Precip.
Yesterday
High -- | Low -- °F
Precip. -- in
Pressure 30.15 in
Visibility 10.0 miles
Clouds Scattered Clouds 1300 ft
Scattered Clouds 2600 ft
Mostly Cloudy 3600 ft
Windchill 3 °F
Dew Point 5 °F
Humidity 67%
Rainfall 0.00 in
Snow Depth Not available.
7:33 AM 6:01 PM
Waxing Crescent, 26% visible
METAR KTTF 130253Z AUTO 33012G17KT 10SM SCT013 SCT026 BKN036 M10/M15 A3015 RMK AO2 T11001155
Pressure 30.15 in
Visibility 10.0 miles
Clouds Scattered Clouds 1300 ft
Scattered Clouds 2600 ft
Mostly Cloudy 3600 ft
Windchill 3 °F
Dew Point 5 °F
Humidity 67%
Rainfall 0.00 in
Snow Depth Not available.
7:33 AM 6:01 PM
Waxing Crescent, 26% visible
METAR KTTF 130253Z AUTO 33012G17KT 10SM SCT013 SCT026 BKN036 M10/M15 A3015 RMK AO2 T11001155

10-Day Weather Forecast

Almanac

Astronomy

Feb. 12, 2016 Rise Set
Actual Time
Civil Twilight
Nautical Twilight
Astronomical Twilight
Moon
Length of Visible Light
Length of Day
Tomorrow will be .
, % of the Moon is Illuminated

Today's Extremes

State Highs State Lows

Community

WunderPhotos

Upload Photos

1,892,480 photos uploaded!

WunderBlog® & News

Nearby

Air Quality

  Air Quality AQ Index Pollutant
Not available.

Snow Depth

Station Depth Elevation

Earthquake Activity

City Distance Mag. Time & Date
Minimum magnitude displayed is 2.5.

Coastal Water Temperatures

Place Temperature

Stations

Nearby Weather Stations

Station Location Temp. Windchill Dew Point Humidity Wind Precip. Elev Updated Type
                   

Watches & Warnings

There are currently no watches in effect.